Time;durP1;ratioP1;P1;durP2;ratioP2;P2;SDS_P1;SDS_P2;PMS_P1;PMS_P2;Temp;Humidity;BMP_temperature;BMP_pressure;BME280_temperature;BME280_humidity;BME280_pressure;Samples;Min_cycle;Max_cycle;Signal;HPM_P1;HPM_P2
2022/06/15 00:02:22;;;;;;;11.35;6.38;;;12.20;99.90;;;;;;5025102;28;20076;-90
2022/06/15 00:04:47;;;;;;;9.15;7.00;;;12.20;99.90;;;;;;5024277;28;20398;-90
2022/06/15 00:07:13;;;;;;;9.82;7.70;;;12.20;99.90;;;;;;5024759;28;20061;-90
2022/06/15 00:09:39;;;;;;;8.93;5.95;;;12.10;99.90;;;;;;5026723;28;20581;-90
2022/06/15 00:12:06;;;;;;;11.13;6.97;;;12.10;99.90;;;;;;5025116;28;20053;-91
2022/06/15 00:14:31;;;;;;;14.02;7.22;;;12.10;99.90;;;;;;5025774;28;20077;-90
2022/06/15 00:16:57;;;;;;;12.52;7.38;;;12.00;99.90;;;;;;5026069;28;20085;-90
2022/06/15 00:19:23;;;;;;;10.80;7.10;;;12.00;99.90;;;;;;5023794;28;20046;-91
2022/06/15 00:21:49;;;;;;;12.63;7.20;;;12.00;99.90;;;;;;4992329;28;20499;-90
2022/06/15 00:24:15;;;;;;;15.05;8.10;;;11.90;99.90;;;;;;4991721;28;20050;-90
2022/06/15 00:26:41;;;;;;;12.68;7.35;;;11.90;99.90;;;;;;4992762;28;20448;-90
2022/06/15 00:29:08;;;;;;;10.82;6.80;;;11.90;99.90;;;;;;4991882;28;20088;-90
2022/06/15 00:31:35;;;;;;;11.82;6.47;;;11.80;99.90;;;;;;4992588;28;20046;-90
2022/06/15 00:34:01;;;;;;;12.98;6.68;;;11.80;99.90;;;;;;4991715;28;20049;-90
2022/06/15 00:36:27;;;;;;;14.60;7.03;;;11.80;99.90;;;;;;4991577;28;20042;-90
2022/06/15 00:38:56;;;;;;;9.57;7.15;;;11.80;99.90;;;;;;4993688;28;20050;-90
2022/06/15 00:41:26;;;;;;;7.93;5.10;;;11.80;99.90;;;;;;4991712;28;20069;-91
2022/06/15 00:43:55;;;;;;;12.18;6.38;;;11.80;99.90;;;;;;4991957;28;20050;-90
2022/06/15 00:46:24;;;;;;;11.68;6.47;;;11.70;99.90;;;;;;5009281;28;20076;-90
2022/06/15 00:48:54;;;;;;;9.23;5.45;;;11.70;99.90;;;;;;5014797;28;20662;-91
2022/06/15 00:51:23;;;;;;;14.13;6.30;;;11.70;99.90;;;;;;5010226;28;20056;-91
2022/06/15 00:53:48;;;;;;;17.63;6.80;;;11.60;99.90;;;;;;5012320;28;20046;-90
2022/06/15 00:56:15;;;;;;;16.92;6.47;;;11.60;99.90;;;;;;5010806;28;20049;-90
2022/06/15 00:58:45;;;;;;;9.15;5.28;;;11.60;99.90;;;;;;5012388;28;20041;-90
2022/06/15 01:01:11;;;;;;;10.00;5.63;;;11.60;99.90;;;;;;5011411;28;20045;-89
2022/06/15 01:03:37;;;;;;;10.32;5.32;;;11.50;99.90;;;;;;5011498;28;20104;-91
2022/06/15 01:06:22;;;;;;;10.05;5.03;;;11.50;99.90;;;;;;5010849;28;20221;-91
2022/06/15 01:09:04;;;;;;;6.93;3.60;;;11.50;99.90;;;;;;4996890;28;20042;-91
2022/06/15 01:11:39;;;;;;;6.90;4.35;;;11.40;99.90;;;;;;4991402;28;20057;-91
2022/06/15 01:14:16;;;;;;;10.40;5.05;;;11.40;99.90;;;;;;4992336;28;20054;-91
2022/06/15 01:17:07;;;;;;;11.27;5.20;;;11.40;99.90;;;;;;4993197;28;20104;-91
2022/06/15 01:19:47;;;;;;;8.82;5.43;;;11.30;99.90;;;;;;4994330;28;20057;-90
2022/06/15 01:22:31;;;;;;;12.40;5.22;;;11.30;99.90;;;;;;4995186;28;20049;-91
2022/06/15 01:25:29;;;;;;;7.95;4.88;;;11.30;99.90;;;;;;4995923;28;20050;-91
2022/06/15 01:27:59;;;;;;;8.50;5.22;;;11.30;99.90;;;;;;4995995;28;20727;-91
2022/06/15 01:30:35;;;;;;;12.32;5.40;;;11.20;99.90;;;;;;4994737;28;20598;-91
2022/06/15 01:33:01;;;;;;;11.40;5.95;;;11.20;99.90;;;;;;4994985;28;20049;-91
2022/06/15 01:35:35;;;;;;;12.77;5.20;;;11.20;99.90;;;;;;4994194;28;20136;-91
2022/06/15 01:38:22;;;;;;;13.98;6.00;;;11.20;99.90;;;;;;4995337;28;20053;-91
2022/06/15 01:41:19;;;;;;;8.20;4.90;;;11.20;99.90;;;;;;4994898;28;20056;-91
2022/06/15 01:43:57;;;;;;;13.77;5.53;;;11.10;99.90;;;;;;4995638;28;20636;-91
2022/06/15 01:46:24;;;;;;;9.80;5.30;;;11.10;99.90;;;;;;4994374;28;20155;-91
2022/06/15 01:48:53;;;;;;;16.85;5.68;;;11.10;99.90;;;;;;4994611;28;20053;-91
2022/06/15 01:51:22;;;;;;;10.32;4.65;;;11.10;99.90;;;;;;5010338;28;20112;-91
2022/06/15 01:53:55;;;;;;;7.68;4.25;;;11.10;99.90;;;;;;4993805;28;20046;-91
2022/06/15 01:56:29;;;;;;;11.75;4.72;;;11.10;99.90;;;;;;4994734;28;20081;-91
2022/06/15 01:59:02;;;;;;;10.43;4.63;;;11.00;99.90;;;;;;4994894;28;20045;-91
2022/06/15 02:01:43;;;;;;;8.70;4.72;;;11.00;99.90;;;;;;4993421;28;20042;-91
2022/06/15 02:04:20;;;;;;;9.88;5.30;;;11.00;99.90;;;;;;4993688;28;20046;-91
2022/06/15 02:06:58;;;;;;;11.63;4.82;;;11.00;99.90;;;;;;4994395;28;20096;-91
2022/06/15 02:09:34;;;;;;;10.32;4.60;;;10.90;99.90;;;;;;4993867;28;20042;-90
2022/06/15 02:12:04;;;;;;;11.80;5.50;;;10.90;99.90;;;;;;4994436;28;20137;-91
2022/06/15 02:14:41;;;;;;;14.93;6.88;;;10.80;99.90;;;;;;4993910;28;20050;-91
2022/06/15 02:17:14;;;;;;;10.52;5.55;;;10.80;99.90;;;;;;4994210;28;20457;-90
2022/06/15 02:19:44;;;;;;;9.73;5.38;;;10.80;99.90;;;;;;4994182;28;20124;-90
2022/06/15 02:22:21;;;;;;;8.23;4.30;;;10.80;99.90;;;;;;4993488;28;20473;-91
2022/06/15 02:24:52;;;;;;;4.47;2.35;;;10.80;99.90;;;;;;4994559;28;20161;-91
2022/06/15 02:27:19;;;;;;;1.92;0.52;;;10.70;99.90;;;;;;4993631;28;20050;-90
2022/06/15 02:29:46;;;;;;;2.72;1.10;;;10.60;99.90;;;;;;4993742;28;20045;-90
2022/06/15 02:32:17;;;;;;;2.47;0.73;;;10.50;99.90;;;;;;4994023;28;20499;-91
2022/06/15 02:34:43;;;;;;;1.75;0.63;;;10.40;99.90;;;;;;4994558;28;20069;-91
2022/06/15 02:37:10;;;;;;;2.90;1.27;;;10.30;99.90;;;;;;4995597;28;20088;-91
2022/06/15 02:39:36;;;;;;;4.18;1.20;;;10.20;99.90;;;;;;4993864;28;20042;-91
2022/06/15 02:42:22;;;;;;;2.13;1.02;;;10.10;99.90;;;;;;4993432;28;20049;-91
2022/06/15 02:44:50;;;;;;;4.88;1.40;;;10.10;99.90;;;;;;4993448;28;20069;-91
2022/06/15 02:47:17;;;;;;;8.30;1.80;;;10.10;99.90;;;;;;5009625;28;20441;-91
2022/06/15 02:49:44;;;;;;;3.10;0.98;;;10.10;99.90;;;;;;4993697;28;20109;-91
2022/06/15 02:52:12;;;;;;;3.63;1.90;;;10.00;99.90;;;;;;4993925;28;20077;-91
2022/06/15 02:54:46;;;;;;;4.22;2.00;;;10.00;99.90;;;;;;4993408;28;20045;-92
2022/06/15 02:57:13;;;;;;;7.38;3.30;;;10.00;99.90;;;;;;4992797;28;20038;-91
2022/06/15 02:59:40;;;;;;;4.95;2.72;;;10.00;99.90;;;;;;4993412;28;20058;-91
2022/06/15 03:02:06;;;;;;;7.07;3.72;;;10.10;99.90;;;;;;4993344;28;20046;-91
2022/06/15 03:04:31;;;;;;;6.30;3.33;;;10.10;99.90;;;;;;4991909;28;20513;-91
2022/06/15 03:06:57;;;;;;;7.63;4.60;;;10.30;99.90;;;;;;4993094;28;20042;-91
2022/06/15 03:09:24;;;;;;;13.38;5.07;;;10.20;99.90;;;;;;4994729;28;20052;-91
2022/06/15 03:11:50;;;;;;;8.90;4.75;;;10.30;99.90;;;;;;4996231;28;20434;-91
2022/06/15 03:14:17;;;;;;;7.20;4.75;;;10.40;99.90;;;;;;4995058;28;20041;-90
2022/06/15 03:16:43;;;;;;;9.00;4.72;;;10.40;99.90;;;;;;4993868;28;20088;-91
2022/06/15 03:19:10;;;;;;;6.18;4.43;;;10.50;99.90;;;;;;4992809;28;20037;-92
2022/06/15 03:21:36;;;;;;;7.93;3.70;;;10.60;99.90;;;;;;4993752;28;20050;-91
2022/06/15 03:24:02;;;;;;;7.90;3.97;;;10.60;99.90;;;;;;4993919;28;20046;-91
2022/06/15 03:26:28;;;;;;;8.63;3.03;;;10.60;99.90;;;;;;4995775;28;20050;-91
2022/06/15 03:28:54;;;;;;;8.88;4.32;;;10.60;99.90;;;;;;4994884;28;20056;-91
2022/06/15 03:31:19;;;;;;;8.75;4.40;;;10.70;99.90;;;;;;4993178;28;20057;-91
2022/06/15 03:33:45;;;;;;;10.13;4.57;;;10.70;99.90;;;;;;4995037;28;20471;-92
2022/06/15 03:36:11;;;;;;;8.52;4.35;;;10.80;99.90;;;;;;4993811;28;20041;-91
2022/06/15 03:38:37;;;;;;;8.15;4.75;;;10.80;99.90;;;;;;4992492;28;20042;-92
2022/06/15 03:41:02;;;;;;;10.07;5.72;;;10.90;99.90;;;;;;4991858;28;20257;-90
2022/06/15 03:43:28;;;;;;;9.45;5.47;;;10.90;99.90;;;;;;5010075;28;20071;-90
2022/06/15 03:45:55;;;;;;;9.38;5.43;;;11.00;99.90;;;;;;5011014;28;20073;-91
2022/06/15 03:48:22;;;;;;;8.85;5.55;;;11.10;99.90;;;;;;5012458;28;20449;-91
2022/06/15 03:50:48;;;;;;;14.10;5.53;;;11.10;99.90;;;;;;5012413;28;20393;-91
2022/06/15 03:53:14;;;;;;;9.65;5.05;;;11.20;99.90;;;;;;5011462;28;20045;-91
2022/06/15 03:55:40;;;;;;;11.18;5.60;;;11.30;99.90;;;;;;5014458;28;20493;-91
2022/06/15 03:58:06;;;;;;;10.15;5.85;;;11.30;99.90;;;;;;5012090;28;20045;-90
2022/06/15 04:00:33;;;;;;;7.38;4.88;;;11.40;99.90;;;;;;5011505;28;20045;-91
2022/06/15 04:02:59;;;;;;;9.65;5.15;;;11.50;99.90;;;;;;5012124;28;20531;-91
2022/06/15 04:05:31;;;;;;;12.05;5.70;;;11.50;99.90;;;;;;5010949;28;20103;-91
2022/06/15 04:10:41;;;;;;;10.80;5.53;;;11.60;99.90;;;;;;5028662;28;20043;-91
2022/06/15 04:13:07;;;;;;;13.25;5.20;;;11.70;99.90;;;;;;5012301;28;20048;-91
2022/06/15 04:15:33;;;;;;;8.88;4.70;;;11.80;99.90;;;;;;5013031;28;20056;-92
2022/06/15 04:17:59;;;;;;;8.98;4.88;;;11.90;99.90;;;;;;5011874;28;20037;-91
2022/06/15 04:20:32;;;;;;;11.40;4.97;;;11.90;99.90;;;;;;5010734;28;20059;-90
2022/06/15 04:23:03;;;;;;;9.68;4.55;;;12.00;99.90;;;;;;5011806;28;20045;-91
2022/06/15 04:25:30;;;;;;;11.23;6.43;;;12.10;99.90;;;;;;5010998;28;20065;-90
2022/06/15 04:27:56;;;;;;;12.05;6.07;;;12.10;99.90;;;;;;5011815;28;20050;-91
2022/06/15 04:30:23;;;;;;;11.32;5.50;;;12.20;99.90;;;;;;5012216;28;20044;-91
2022/06/15 04:32:49;;;;;;;11.45;6.10;;;12.30;99.90;;;;;;5010900;28;20405;-91
2022/06/15 04:35:15;;;;;;;13.48;6.65;;;12.30;99.90;;;;;;4991420;28;20048;-91
2022/06/15 04:37:41;;;;;;;13.80;6.47;;;12.40;99.90;;;;;;4991961;28;20457;-91
2022/06/15 04:40:07;;;;;;;11.77;6.07;;;12.40;99.90;;;;;;4994293;28;20042;-91
2022/06/15 04:42:35;;;;;;;11.20;5.78;;;12.60;99.90;;;;;;4993448;28;20140;-90
2022/06/15 04:45:01;;;;;;;10.00;6.47;;;12.60;99.90;;;;;;4994251;28;20391;-91
2022/06/15 04:47:26;;;;;;;12.77;5.95;;;12.70;99.90;;;;;;4993009;28;20088;-91
2022/06/15 04:49:52;;;;;;;13.30;6.22;;;12.80;99.90;;;;;;4990825;28;20053;-91
2022/06/15 04:52:18;;;;;;;10.18;5.03;;;12.90;99.90;;;;;;5002685;28;20054;-91
2022/06/15 04:54:43;;;;;;;11.15;5.68;;;13.00;99.90;;;;;;4996462;28;20092;-91
2022/06/15 04:57:09;;;;;;;11.65;6.20;;;13.10;99.90;;;;;;4994922;28;20497;-90
2022/06/15 04:59:35;;;;;;;11.95;5.55;;;13.20;99.90;;;;;;4995905;28;20037;-90
2022/06/15 05:02:01;;;;;;;15.45;5.93;;;13.30;99.90;;;;;;4995311;28;20045;-91
2022/06/15 05:04:27;;;;;;;10.77;5.22;;;13.30;99.90;;;;;;4994796;28;20453;-91
2022/06/15 05:06:53;;;;;;;12.50;5.38;;;13.40;99.90;;;;;;4996329;28;20046;-91
2022/06/15 05:09:19;;;;;;;12.55;5.50;;;13.40;99.90;;;;;;4994851;28;20111;-92
2022/06/15 05:11:45;;;;;;;10.65;5.38;;;13.40;99.90;;;;;;4995517;28;20041;-91
2022/06/15 05:14:11;;;;;;;11.70;6.00;;;13.50;99.90;;;;;;4998941;28;20045;-91
2022/06/15 05:16:37;;;;;;;11.10;5.95;;;13.50;99.90;;;;;;5014835;28;20049;-91
2022/06/15 05:19:04;;;;;;;17.70;5.50;;;13.50;99.90;;;;;;5016757;28;20124;-91
2022/06/15 05:21:30;;;;;;;15.90;5.68;;;13.60;99.90;;;;;;5014526;28;20049;-91
2022/06/15 05:23:56;;;;;;;13.55;5.72;;;13.60;99.90;;;;;;5014639;28;20061;-91
2022/06/15 05:26:24;;;;;;;10.88;5.45;;;13.70;99.90;;;;;;5014149;28;20144;-91
2022/06/15 05:28:51;;;;;;;14.85;5.47;;;13.70;99.90;;;;;;5015471;28;20045;-90
2022/06/15 05:31:21;;;;;;;10.13;5.50;;;13.80;99.90;;;;;;5013477;28;20045;-91
2022/06/15 05:33:53;;;;;;;11.55;5.82;;;13.90;99.90;;;;;;5015024;28;20044;-89
2022/06/15 05:36:23;;;;;;;11.85;5.60;;;14.00;99.90;;;;;;5013716;28;20049;-90
2022/06/15 05:38:48;;;;;;;13.85;6.35;;;14.10;99.90;;;;;;5014116;28;20095;-91
2022/06/15 05:41:14;;;;;;;8.90;5.20;;;14.10;99.90;;;;;;5013941;28;20053;-91
2022/06/15 05:43:44;;;;;;;7.82;5.15;;;14.20;99.90;;;;;;5014759;28;20084;-90
2022/06/15 05:46:18;;;;;;;11.48;5.22;;;14.20;99.90;;;;;;5013934;28;20200;-91
2022/06/15 05:48:44;;;;;;;11.65;5.07;;;14.30;99.90;;;;;;5015188;28;20048;-91
2022/06/15 05:51:10;;;;;;;9.20;5.30;;;14.40;99.90;;;;;;5013860;28;20045;-91
2022/06/15 05:53:35;;;;;;;11.20;5.40;;;14.60;99.90;;;;;;5015029;28;20045;-91
2022/06/15 05:56:01;;;;;;;9.88;5.50;;;14.70;99.90;;;;;;5016497;28;20512;-91
2022/06/15 05:58:27;;;;;;;16.40;5.57;;;14.80;99.90;;;;;;5013028;28;20045;-91
2022/06/15 06:00:52;;;;;;;12.32;5.20;;;14.80;99.90;;;;;;5029443;28;20041;-91
2022/06/15 06:03:18;;;;;;;11.05;4.57;;;14.80;99.90;;;;;;5028772;28;20045;-91
2022/06/15 06:05:44;;;;;;;13.05;4.70;;;14.90;99.90;;;;;;5015020;28;20091;-94
2022/06/15 06:08:10;;;;;;;13.88;4.90;;;14.90;99.90;;;;;;5006804;28;20468;-96
2022/06/15 06:10:35;;;;;;;12.82;4.75;;;14.90;99.90;;;;;;5014697;28;20049;-94
2022/06/15 06:13:01;;;;;;;12.05;4.80;;;14.90;99.90;;;;;;5013995;28;20067;-95
2022/06/15 06:15:27;;;;;;;16.23;5.82;;;15.00;99.90;;;;;;5001003;28;20429;-92
2022/06/15 06:17:53;;;;;;;9.13;4.47;;;15.00;99.90;;;;;;4992290;28;20046;-93
2022/06/15 06:20:18;;;;;;;12.07;4.40;;;15.10;99.90;;;;;;5006540;28;20049;-93
2022/06/15 06:22:44;;;;;;;12.82;4.28;;;15.10;99.90;;;;;;5011379;28;20469;-93
2022/06/15 06:25:10;;;;;;;13.13;4.10;;;15.20;99.90;;;;;;5009693;28;20042;-91
2022/06/15 06:27:36;;;;;;;14.38;4.07;;;15.30;99.90;;;;;;5010461;28;20137;-94
2022/06/15 06:30:04;;;;;;;13.23;3.63;;;15.40;99.90;;;;;;5012060;28;20049;-94
2022/06/15 06:32:30;;;;;;;13.57;3.78;;;15.50;99.90;;;;;;5014908;28;20060;-93
2022/06/15 06:34:55;;;;;;;10.52;3.90;;;15.50;99.90;;;;;;5010451;28;20144;-94
2022/06/15 06:37:23;;;;;;;10.98;3.78;;;15.50;99.90;;;;;;5010675;28;20053;-94
2022/06/15 06:39:55;;;;;;;11.35;3.95;;;15.50;99.90;;;;;;5010849;28;20037;-96
2022/06/15 06:42:21;;;;;;;7.80;3.53;;;15.80;99.90;;;;;;5015514;28;20045;-95
2022/06/15 06:44:46;;;;;;;9.07;3.40;;;15.70;99.90;;;;;;5015116;28;20288;-94
2022/06/15 06:47:12;;;;;;;8.43;3.30;;;15.80;99.90;;;;;;5014541;28;20135;-94
2022/06/15 06:49:38;;;;;;;12.48;2.83;;;15.90;99.90;;;;;;5012191;28;20046;-93
2022/06/15 06:52:05;;;;;;;10.52;3.28;;;16.00;99.90;;;;;;5012908;28;20048;-94
2022/06/15 06:54:31;;;;;;;7.75;2.50;;;16.20;99.90;;;;;;5014010;28;20104;-93
2022/06/15 06:56:57;;;;;;;7.97;2.17;;;16.40;99.90;;;;;;5012395;28;20409;-93
2022/06/15 06:59:26;;;;;;;6.20;2.22;;;16.70;99.90;;;;;;5010039;28;20041;-92
2022/06/15 07:01:51;;;;;;;9.35;2.95;;;17.00;99.90;;;;;;5012305;28;20057;-94
2022/06/15 07:04:18;;;;;;;6.15;2.10;;;17.20;99.90;;;;;;5012401;28;20439;-95
2022/06/15 07:06:44;;;;;;;6.60;2.30;;;17.40;99.90;;;;;;5016211;28;20037;-95
2022/06/15 07:09:11;;;;;;;8.90;2.30;;;17.60;99.90;;;;;;5014617;28;20049;-94
2022/06/15 07:11:37;;;;;;;7.22;1.95;;;17.70;99.90;;;;;;5006192;28;20063;-95
2022/06/15 07:14:05;;;;;;;7.55;1.98;;;17.70;99.90;;;;;;5012977;28;20108;-92
2022/06/15 07:16:31;;;;;;;4.78;1.70;;;17.80;99.90;;;;;;5013545;28;20053;-95
2022/06/15 07:18:57;;;;;;;11.35;2.28;;;17.80;99.90;;;;;;5013958;28;20041;-95
2022/06/15 07:21:25;;;;;;;8.45;1.98;;;18.10;99.90;;;;;;5005884;28;20049;-94
2022/06/15 07:23:55;;;;;;;6.88;1.70;;;18.20;99.90;;;;;;5012670;28;20112;-96
2022/06/15 07:26:26;;;;;;;5.80;2.13;;;18.30;99.90;;;;;;5012953;28;20081;-94
2022/06/15 07:28:53;;;;;;;9.77;2.45;;;18.40;99.90;;;;;;5012755;28;20045;-93
2022/06/15 07:31:24;;;;;;;10.30;2.58;;;18.40;99.90;;;;;;5008564;28;20053;-92
2022/06/15 07:33:50;;;;;;;7.43;1.90;;;18.40;99.90;;;;;;5012977;28;20104;-93
2022/06/15 07:36:17;;;;;;;6.68;1.80;;;18.50;99.90;;;;;;5012965;28;20041;-95
2022/06/15 07:38:42;;;;;;;9.20;2.70;;;18.50;99.90;;;;;;5012215;28;20045;-95
2022/06/15 07:41:11;;;;;;;7.82;2.20;;;18.60;99.90;;;;;;5029474;28;20489;-96
2022/06/15 07:43:41;;;;;;;;;;;18.70;99.90;;;;;;5030514;28;20453;-96
2022/06/15 07:46:08;;;;;;;8.20;1.98;;;18.70;99.90;;;;;;5013714;28;19980;-94
2022/06/15 07:51:28;;;;;;;6.80;2.28;;;19.10;99.90;;;;;;5028144;28;20046;-94
2022/06/15 07:53:56;;;;;;;9.00;1.92;;;19.30;99.90;;;;;;5030001;28;20049;-95
2022/06/15 07:56:22;;;;;;;8.52;2.10;;;19.30;99.90;;;;;;5026413;28;20108;-95
2022/06/15 07:58:48;;;;;;;6.45;1.77;;;19.30;99.90;;;;;;4994119;28;20096;-95
2022/06/15 08:01:14;;;;;;;7.22;1.80;;;19.20;99.90;;;;;;4992973;28;20085;-95
2022/06/15 08:03:40;;;;;;;7.45;1.85;;;19.10;99.90;;;;;;4994556;28;20045;-95
2022/06/15 08:06:06;;;;;;;8.18;1.88;;;19.10;99.90;;;;;;4991781;28;20055;-95
2022/06/15 08:08:32;;;;;;;10.35;2.40;;;19.00;99.90;;;;;;4996014;28;20041;-95
2022/06/15 08:10:58;;;;;;;7.65;2.05;;;19.00;99.90;;;;;;4993016;28;20049;-95
2022/06/15 08:13:24;;;;;;;7.18;1.67;;;18.90;99.90;;;;;;4992587;28;20057;-94
2022/06/15 08:15:51;;;;;;;9.73;1.70;;;18.80;99.90;;;;;;4993706;28;20494;-95
2022/06/15 08:18:21;;;;;;;7.35;2.15;;;18.80;99.90;;;;;;4994220;28;20045;-95
2022/06/15 08:20:53;;;;;;;6.22;2.05;;;18.80;99.90;;;;;;4992190;28;20038;-95
2022/06/15 08:23:25;;;;;;;8.07;1.77;;;18.80;99.90;;;;;;4993051;28;20068;-95
2022/06/15 08:25:55;;;;;;;7.72;2.30;;;18.70;99.90;;;;;;4995669;28;20413;-95
2022/06/15 08:28:24;;;;;;;7.90;2.10;;;18.70;99.90;;;;;;4996552;28;20052;-95
2022/06/15 08:30:52;;;;;;;6.53;2.08;;;18.80;99.90;;;;;;5000648;28;20053;-95
2022/06/15 08:33:19;;;;;;;10.75;2.08;;;18.90;99.90;;;;;;4996521;28;20389;-95
2022/06/15 08:35:47;;;;;;;7.63;2.35;;;19.10;99.90;;;;;;4996618;28;20053;-95
2022/06/15 08:38:16;;;;;;;5.40;1.60;;;19.20;99.90;;;;;;5005481;28;20088;-95
2022/06/15 08:40:50;;;;;;;13.63;2.22;;;19.40;99.90;;;;;;5015432;28;20042;-95
2022/06/15 08:43:34;;;;;;;10.98;1.90;;;19.60;99.90;;;;;;5015486;28;20132;-96
2022/06/15 08:46:25;;;;;;;7.65;2.15;;;19.80;99.90;;;;;;5016658;28;20053;-95
2022/06/15 08:49:14;;;;;;;9.05;2.08;;;20.00;99.90;;;;;;5009454;28;20058;-95
2022/06/15 08:51:56;;;;;;;7.20;1.92;;;20.00;99.90;;;;;;5016068;28;20051;-95
2022/06/15 08:54:39;;;;;;;7.03;1.83;;;20.00;99.90;;;;;;5015317;28;20057;-95
2022/06/15 08:57:18;;;;;;;7.50;1.65;;;20.10;99.90;;;;;;5015763;28;20292;-92
2022/06/15 08:59:49;;;;;;;7.05;1.80;;;20.10;99.90;;;;;;5031585;28;20045;-94
2022/06/15 09:02:22;;;;;;;6.45;1.38;;;20.30;99.90;;;;;;5016669;28;20404;-94
2022/06/15 09:04:57;;;;;;;;;;;20.50;99.90;;;;;;5014651;28;20124;-94
2022/06/15 09:08:13;;;;;;;4.32;1.27;;;20.60;99.90;;;;;;5015737;28;19971;-96
2022/06/15 09:10:59;;;;;;;5.78;1.20;;;20.50;99.90;;;;;;5004674;28;20108;-96
2022/06/15 09:13:46;;;;;;;5.75;1.35;;;20.70;99.90;;;;;;5015876;28;20537;-93
2022/06/15 09:16:44;;;;;;;6.82;1.50;;;20.50;99.90;;;;;;5010019;28;20108;-94
2022/06/15 09:19:22;;;;;;;6.75;1.48;;;20.20;99.90;;;;;;5010847;28;20053;-94
2022/06/15 09:22:01;;;;;;;5.63;1.38;;;20.00;99.90;;;;;;5009778;28;20099;-96
2022/06/15 09:24:47;;;;;;;6.75;1.38;;;20.20;99.90;;;;;;5017326;28;20053;-96
2022/06/15 09:27:29;;;;;;;7.47;1.42;;;20.30;99.90;;;;;;5014842;28;20045;-95
2022/06/15 09:33:57;;;;;;;4.93;1.40;;;19.90;99.90;;;;;;4972321;28;20042;-91
2022/06/15 09:36:29;;;;;;;5.85;1.33;;;20.40;99.90;;;;;;5011096;28;20089;-96
2022/06/15 09:38:58;;;;;;;7.32;1.52;;;20.70;99.90;;;;;;5014938;28;20049;-96
2022/06/15 09:41:41;;;;;;;5.80;1.42;;;21.00;99.90;;;;;;5015912;28;20449;-96
2022/06/15 09:44:10;;;;;;;;;;;21.30;99.90;;;;;;5022143;28;20073;-96
2022/06/15 09:47:19;;;;;;;3.05;0.98;;;21.60;99.90;;;;;;5018544;28;19972;-96
2022/06/15 09:49:59;;;;;;;8.05;1.25;;;21.90;99.90;;;;;;5014139;28;20196;-96
2022/06/15 09:52:39;;;;;;;4.63;1.33;;;22.10;99.90;;;;;;5014782;28;20531;-96
2022/06/15 09:55:28;;;;;;;6.40;1.50;;;22.20;99.90;;;;;;5015449;28;20154;-96
2022/06/15 09:57:55;;;;;;;7.30;1.50;;;22.30;99.90;;;;;;5014268;28;20386;-95
2022/06/15 10:00:24;;;;;;;5.60;1.13;;;22.50;99.90;;;;;;5017240;28;20053;-96
2022/06/15 10:02:56;;;;;;;6.05;1.45;;;22.50;99.90;;;;;;5019235;28;20210;-96
2022/06/15 10:05:30;;;;;;;5.90;1.45;;;22.60;99.90;;;;;;5022188;28;20045;-96
2022/06/15 10:08:02;;;;;;;5.57;1.52;;;22.70;99.90;;;;;;5019282;28;20048;-96
2022/06/15 10:10:34;;;;;;;4.78;1.30;;;22.70;99.90;;;;;;5015751;28;20064;-96
2022/06/15 10:13:26;;;;;;;5.88;1.40;;;22.80;99.90;;;;;;5018980;28;20042;-96
2022/06/15 10:15:56;;;;;;;5.50;1.08;;;22.70;99.90;;;;;;5014773;28;20136;-96
2022/06/15 10:18:44;;;;;;;6.30;1.30;;;22.60;99.90;;;;;;5015383;28;20049;-96
2022/06/15 10:21:22;;;;;;;6.40;1.23;;;22.60;99.90;;;;;;5013951;28;20064;-96
2022/06/15 10:24:09;;;;;;;6.38;1.42;;;22.70;99.90;;;;;;5018597;28;20497;-96
2022/06/15 10:27:12;;;;;;;6.63;1.23;;;22.70;99.90;;;;;;5014764;28;20060;-96
2022/06/15 10:29:40;;;;;;;5.65;1.20;;;22.50;99.90;;;;;;4992533;28;20034;-96
2022/06/15 10:32:18;;;;;;;6.55;1.38;;;22.10;99.90;;;;;;5017858;28;20049;-94
2022/06/15 10:34:45;;;;;;;4.03;1.15;;;21.90;99.90;;;;;;5007518;28;20037;-92
2022/06/15 10:37:29;;;;;;;6.47;1.40;;;21.60;99.90;;;;;;5013541;28;20476;-91
2022/06/15 10:39:59;;;;;;;4.95;1.15;;;21.70;99.90;;;;;;5013255;28;20044;-94
2022/06/15 10:42:33;;;;;;;8.27;1.48;;;21.70;99.90;;;;;;5014187;28;20052;-93
2022/06/15 10:45:07;;;;;;;5.85;1.23;;;21.70;99.90;;;;;;5023365;28;20041;-93
2022/06/15 10:47:48;;;;;;;8.45;1.60;;;21.60;99.90;;;;;;5016167;28;20053;-92
2022/06/15 10:50:26;;;;;;;5.80;1.02;;;21.60;99.90;;;;;;5012568;28;20128;-93
2022/06/15 10:52:58;;;;;;;9.07;1.40;;;21.60;99.90;;;;;;5013196;28;20049;-92
2022/06/15 11:04:17;;;;;;;5.65;1.27;;;22.40;99.90;;;;;;5029821;28;20067;-96
2022/06/15 11:06:49;;;;;;;7.90;1.85;;;22.70;99.90;;;;;;5014711;28;20041;-95
2022/06/15 11:09:18;;;;;;;3.90;1.20;;;22.80;99.90;;;;;;5014288;28;20056;-96
2022/06/15 11:11:44;;;;;;;5.18;1.17;;;23.00;99.90;;;;;;5013492;28;20053;-96
2022/06/15 11:14:27;;;;;;;4.90;1.48;;;23.10;99.90;;;;;;5013717;28;20164;-96
2022/06/15 11:19:56;;;;;;;6.43;1.45;;;23.20;99.90;;;;;;5031471;28;20049;-96
2022/06/15 11:22:25;;;;;;;6.15;1.30;;;23.40;99.90;;;;;;5010070;28;20064;-96
2022/06/15 11:25:04;;;;;;;5.25;1.40;;;23.40;99.90;;;;;;5012504;28;20050;-96
2022/06/15 11:27:37;;;;;;;7.88;1.85;;;23.50;99.90;;;;;;5011234;28;20200;-96
2022/06/15 11:30:25;;;;;;;7.50;1.73;;;23.60;99.90;;;;;;5009463;28;20048;-96
2022/06/15 11:33:07;;;;;;;11.23;1.80;;;23.50;99.90;;;;;;5010595;28;20112;-96
2022/06/15 11:35:39;;;;;;;7.15;1.75;;;23.30;99.90;;;;;;5009701;28;20116;-96
2022/06/15 11:38:16;;;;;;;10.02;2.05;;;23.10;99.90;;;;;;5009768;28;20053;-96
2022/06/15 11:40:49;;;;;;;6.05;1.83;;;22.60;99.90;;;;;;5010127;28;20482;-96
2022/06/15 11:43:20;;;;;;;6.15;1.73;;;22.40;99.90;;;;;;5012286;28;20057;-96
2022/06/15 11:45:53;;;;;;;7.85;1.90;;;22.10;99.90;;;;;;5011909;28;20133;-96
2022/06/15 11:48:38;;;;;;;8.00;2.42;;;22.00;99.90;;;;;;5011821;28;20133;-96
2022/06/15 11:51:13;;;;;;;7.63;1.77;;;21.90;99.90;;;;;;5009075;28;20053;-96
2022/06/15 11:54:02;;;;;;;4.75;1.65;;;21.80;99.90;;;;;;5010782;28;20474;-95
2022/06/15 11:56:37;;;;;;;7.53;2.17;;;21.80;99.90;;;;;;5014954;28;20038;-95
2022/06/15 11:59:18;;;;;;;7.45;1.83;;;21.90;99.90;;;;;;5012493;28;20104;-96
2022/06/15 12:01:57;;;;;;;10.40;2.08;;;21.80;99.90;;;;;;5012758;28;20132;-95
2022/06/15 12:04:35;;;;;;;7.82;1.95;;;21.70;99.90;;;;;;5011798;28;20056;-96
2022/06/15 12:07:05;;;;;;;7.13;1.83;;;21.90;99.90;;;;;;5013093;28;20064;-96
2022/06/15 12:09:31;;;;;;;7.43;2.05;;;22.20;99.90;;;;;;5013547;28;20085;-96
2022/06/15 12:15:12;;;;;;;6.97;1.73;;;23.00;99.90;;;;;;5029816;28;20049;-96
2022/06/15 12:17:38;;;;;;;6.30;1.88;;;23.00;99.90;;;;;;5029122;28;20037;-90
2022/06/15 12:20:35;;;;;;;8.18;1.58;;;22.80;99.90;;;;;;5012345;28;20041;-90
2022/06/15 12:23:20;;;;;;;5.68;1.80;;;22.80;99.90;;;;;;4995878;28;20512;-94
2022/06/15 12:26:09;;;;;;;5.95;1.85;;;22.70;99.90;;;;;;5011590;28;20062;-93
2022/06/15 12:28:46;;;;;;;6.18;1.92;;;22.40;98.80;;;;;;5014840;28;20172;-92
2022/06/15 12:31:25;;;;;;;7.40;2.05;;;22.10;99.10;;;;;;5014044;28;20041;-92
2022/06/15 12:34:07;;;;;;;6.40;2.13;;;22.10;99.30;;;;;;5011043;28;20522;-91
2022/06/15 12:36:55;;;;;;;5.70;2.00;;;22.00;98.50;;;;;;5012567;28;20061;-93
2022/06/15 12:39:53;;;;;;;9.95;1.98;;;21.90;98.00;;;;;;5011589;28;20053;-92
2022/06/15 12:42:22;;;;;;;6.13;1.83;;;22.00;98.50;;;;;;5013537;28;20034;-92
2022/06/15 12:45:17;;;;;;;8.52;1.88;;;22.00;98.40;;;;;;5014019;28;20044;-92
2022/06/15 12:47:50;;;;;;;7.07;1.90;;;22.00;97.70;;;;;;4993095;28;20430;-93
2022/06/15 12:50:32;;;;;;;5.18;1.90;;;22.00;98.20;;;;;;5010665;28;20037;-93
2022/06/15 12:53:10;;;;;;;5.90;1.98;;;22.10;99.90;;;;;;5012564;28;20046;-92
2022/06/15 12:55:56;;;;;;;9.07;1.85;;;22.30;99.50;;;;;;5007993;28;20489;-92
2022/06/15 12:58:26;;;;;;;8.68;1.80;;;22.30;96.80;;;;;;5024246;28;20046;-93
2022/06/15 13:01:00;;;;;;;7.35;2.00;;;22.20;97.00;;;;;;5007957;28;20500;-92
2022/06/15 13:03:45;;;;;;;5.88;1.88;;;22.10;96.70;;;;;;5011867;28;20037;-92
2022/06/15 13:06:25;;;;;;;7.88;1.70;;;22.00;95.40;;;;;;5011143;28;20049;-92
2022/06/15 13:09:11;;;;;;;5.78;1.80;;;22.00;96.70;;;;;;5013787;28;20087;-92
2022/06/15 13:12:09;;;;;;;5.93;1.80;;;22.20;97.70;;;;;;4992804;28;20042;-93
2022/06/15 13:14:54;;;;;;;5.35;1.70;;;22.50;97.70;;;;;;5016174;28;20049;-93
2022/06/15 13:17:24;;;;;;;5.15;1.88;;;22.40;98.00;;;;;;5015821;28;20075;-93
2022/06/15 13:20:00;;;;;;;5.10;1.70;;;22.20;97.90;;;;;;5016224;28;20041;-92
2022/06/15 13:22:29;;;;;;;5.13;1.75;;;21.90;97.10;;;;;;5014025;28;20039;-92
2022/06/15 13:25:06;;;;;;;4.70;1.67;;;21.80;97.50;;;;;;5016903;28;20139;-92
2022/06/15 13:27:34;;;;;;;6.22;1.77;;;21.80;96.50;;;;;;5015249;28;20533;-92
2022/06/15 13:30:21;;;;;;;4.05;1.48;;;21.60;96.50;;;;;;5015090;28;20251;-92
2022/06/15 13:32:58;;;;;;;2.83;1.38;;;21.40;95.70;;;;;;5015145;28;20045;-92